createdAt,value
2024-02-14T00:00:47.930Z,10.30
2024-02-14T00:03:14.933Z,10.40
2024-02-14T00:05:42.574Z,10.40
2024-02-14T00:08:09.605Z,10.40
2024-02-14T00:10:36.696Z,10.40
2024-02-14T00:13:04.190Z,10.30
2024-02-14T00:15:31.482Z,10.30
2024-02-14T00:18:23.224Z,10.20
2024-02-14T00:20:55.507Z,10.30
2024-02-14T00:23:34.530Z,10.30
2024-02-14T00:26:07.073Z,10.30
2024-02-14T00:28:37.818Z,10.30
2024-02-14T00:31:09.033Z,10.30
2024-02-14T00:33:41.911Z,10.30
2024-02-14T00:36:13.864Z,10.30
2024-02-14T00:38:56.940Z,10.40
2024-02-14T00:41:45.185Z,10.40
2024-02-14T00:44:12.128Z,10.40
2024-02-14T00:46:50.411Z,10.40
2024-02-14T00:49:30.468Z,10.30
2024-02-14T00:51:57.689Z,10.30
2024-02-14T00:54:32.222Z,10.20
2024-02-14T00:57:12.121Z,10.20
2024-02-14T00:59:52.508Z,10.20
2024-02-14T01:02:22.724Z,10.10
2024-02-14T01:04:55.495Z,10.10
2024-02-14T01:07:24.971Z,10.10
2024-02-14T01:09:59.000Z,10.20
2024-02-14T01:12:29.403Z,10.10
2024-02-14T01:14:56.573Z,10.20
2024-02-14T01:17:23.767Z,10.30
2024-02-14T01:19:53.313Z,10.30
2024-02-14T01:22:25.362Z,10.30
2024-02-14T01:25:05.842Z,10.20
2024-02-14T01:27:41.625Z,10.20
2024-02-14T01:30:24.287Z,10.20
2024-02-14T01:32:59.636Z,10.10
2024-02-14T01:35:34.391Z,10.20
2024-02-14T01:38:19.799Z,10.10
2024-02-14T01:41:01.589Z,10.20
2024-02-14T01:43:54.603Z,10.20
2024-02-14T01:46:29.381Z,10.30
2024-02-14T01:49:07.408Z,10.40
2024-02-14T01:51:47.316Z,10.30
2024-02-14T01:54:20.062Z,10.30
2024-02-14T01:56:56.725Z,10.30
2024-02-14T01:59:37.724Z,10.40
2024-02-14T02:02:11.911Z,10.40
2024-02-14T02:05:01.045Z,10.40
2024-02-14T02:07:34.420Z,10.40
2024-02-14T02:10:10.890Z,10.40
2024-02-14T02:12:49.791Z,10.40
2024-02-14T02:15:22.078Z,10.50
2024-02-14T02:17:56.939Z,10.40
2024-02-14T02:20:31.386Z,10.40
2024-02-14T02:22:59.741Z,10.40
2024-02-14T02:25:33.185Z,10.40
2024-02-14T02:28:09.134Z,10.30
2024-02-14T02:30:37.199Z,10.30
2024-02-14T02:33:17.178Z,10.30
2024-02-14T02:35:48.912Z,10.30
2024-02-14T02:38:24.182Z,10.20
2024-02-14T02:40:54.152Z,10.20
2024-02-14T02:43:29.627Z,10.20
2024-02-14T02:46:08.558Z,10.20
2024-02-14T02:48:37.704Z,10.20
2024-02-14T02:51:14.454Z,10.30
2024-02-14T02:53:49.307Z,10.20
2024-02-14T02:56:39.132Z,10.20
2024-02-14T02:59:19.596Z,10.20
2024-02-14T03:01:53.136Z,10.20
2024-02-14T03:04:41.596Z,10.20
2024-02-14T03:07:22.698Z,10.20
2024-02-14T03:09:54.194Z,10.10
2024-02-14T03:12:33.170Z,10.20
2024-02-14T03:15:17.491Z,10.20
2024-02-14T03:17:57.589Z,10.30
2024-02-14T03:21:04.253Z,10.30
2024-02-14T03:23:45.383Z,10.40
2024-02-14T03:26:14.644Z,10.30
2024-02-14T03:28:48.377Z,10.40
2024-02-14T03:31:24.613Z,10.50
2024-02-14T03:34:02.793Z,10.50
2024-02-14T03:36:33.957Z,10.50
2024-02-14T03:39:58.702Z,10.50
2024-02-14T03:42:19.522Z,10.60
2024-02-14T03:47:55.163Z,10.70
2024-02-14T03:50:30.404Z,10.70
2024-02-14T03:52:59.892Z,10.70
2024-02-14T03:55:32.483Z,10.70
2024-02-14T03:58:24.128Z,10.60
2024-02-14T04:01:16.763Z,10.70
2024-02-14T04:03:49.522Z,10.60
2024-02-14T04:06:25.364Z,10.50
2024-02-14T04:08:57.958Z,10.40
2024-02-14T04:11:28.799Z,10.40
2024-02-14T04:14:08.196Z,10.40
2024-02-14T04:16:43.185Z,10.40
2024-02-14T04:19:12.415Z,10.40
2024-02-14T04:21:41.818Z,10.40
2024-02-14T04:24:16.615Z,10.40
2024-02-14T04:26:48.826Z,10.30
2024-02-14T04:29:20.400Z,10.40
2024-02-14T04:31:53.904Z,10.30
2024-02-14T04:34:36.212Z,10.40
2024-02-14T04:39:43.685Z,10.30
2024-02-14T04:42:10.697Z,10.30
2024-02-14T04:44:37.884Z,10.30
2024-02-14T04:47:04.976Z,10.30
2024-02-14T04:49:32.267Z,10.30
2024-02-14T04:51:59.975Z,10.30
2024-02-14T04:54:27.898Z,10.30
2024-02-14T04:56:57.605Z,10.30
2024-02-14T04:59:26.714Z,10.40
2024-02-14T05:01:55.658Z,10.40
2024-02-14T05:04:23.974Z,10.50
2024-02-14T05:06:52.286Z,10.50
2024-02-14T05:09:21.126Z,10.50
2024-02-14T05:11:48.160Z,10.50
2024-02-14T05:14:15.114Z,10.50
2024-02-14T05:16:41.950Z,10.40
2024-02-14T05:19:09.096Z,10.40
2024-02-14T05:21:37.534Z,10.40
2024-02-14T05:24:05.407Z,10.30
2024-02-14T05:26:32.558Z,10.30
2024-02-14T05:29:00.278Z,10.30
2024-02-14T05:31:44.553Z,10.30
2024-02-14T05:34:11.941Z,10.30
2024-02-14T05:36:39.467Z,10.30
2024-02-14T05:39:07.564Z,10.30
2024-02-14T05:41:34.630Z,10.30
2024-02-14T05:44:03.218Z,10.30
2024-02-14T05:46:30.121Z,10.40
2024-02-14T05:48:58.822Z,10.30
2024-02-14T05:51:26.424Z,10.40
2024-02-14T05:53:53.387Z,10.40
2024-02-14T05:56:22.361Z,10.40
2024-02-14T05:58:49.301Z,10.40
2024-02-14T06:01:16.371Z,10.40
2024-02-14T06:03:46.489Z,10.40
2024-02-14T06:06:13.444Z,10.40
2024-02-14T06:08:40.441Z,10.40
2024-02-14T06:11:07.386Z,10.50
2024-02-14T06:13:35.352Z,10.50
2024-02-14T06:16:02.430Z,10.50
2024-02-14T06:18:29.469Z,10.50
2024-02-14T06:20:56.412Z,10.40
2024-02-14T06:23:26.139Z,10.40
2024-02-14T06:25:54.707Z,10.40
2024-02-14T06:28:21.729Z,10.40
2024-02-14T06:30:48.631Z,10.30
2024-02-14T06:33:15.773Z,10.30
2024-02-14T06:35:42.971Z,10.30
2024-02-14T06:38:10.086Z,10.20
2024-02-14T06:40:36.969Z,10.10
2024-02-14T06:43:04.002Z,10.10
2024-02-14T06:45:31.056Z,10.20
2024-02-14T06:47:58.022Z,10.20
2024-02-14T06:50:27.140Z,10.20
2024-02-14T06:52:54.332Z,10.20
2024-02-14T06:55:21.435Z,10.20
2024-02-14T06:57:48.393Z,10.20
2024-02-14T07:00:15.740Z,10.20
2024-02-14T07:02:44.754Z,10.20
2024-02-14T07:05:14.417Z,10.20
2024-02-14T07:07:44.385Z,10.20
2024-02-14T07:10:11.676Z,10.20
2024-02-14T07:12:38.804Z,10.20
2024-02-14T07:15:07.442Z,10.30
2024-02-14T07:17:34.650Z,10.30
2024-02-14T07:20:03.087Z,10.30
2024-02-14T07:22:31.951Z,10.30
2024-02-14T07:24:58.939Z,10.30
2024-02-14T07:27:25.866Z,10.20
2024-02-14T07:29:52.888Z,10.30
2024-02-14T07:32:20.267Z,10.30
2024-02-14T07:34:47.725Z,10.30
2024-02-14T07:37:16.868Z,10.30
2024-02-14T07:39:43.813Z,10.30
2024-02-14T07:42:10.761Z,10.30
2024-02-14T07:44:37.896Z,10.30
2024-02-14T07:47:06.965Z,10.30
2024-02-14T07:49:34.810Z,10.40
2024-02-14T07:52:01.862Z,10.40
2024-02-14T07:54:28.832Z,10.50
2024-02-14T07:56:55.756Z,10.50
2024-02-14T07:59:22.746Z,10.60
2024-02-14T08:01:49.759Z,10.60
2024-02-14T08:04:19.600Z,10.60
2024-02-14T08:06:47.986Z,10.60
2024-02-14T08:09:14.938Z,10.60
2024-02-14T08:11:42.385Z,10.60
2024-02-14T08:14:09.424Z,10.70
2024-02-14T08:16:36.760Z,10.70
2024-02-14T08:19:04.805Z,10.70
2024-02-14T08:21:32.894Z,10.80
2024-02-14T08:24:03.000Z,10.80
2024-02-14T08:26:30.431Z,10.80
2024-02-14T08:28:57.624Z,10.90
2024-02-14T08:31:24.732Z,10.90
2024-02-14T08:33:52.181Z,10.90
2024-02-14T08:36:20.968Z,10.90
2024-02-14T08:38:48.775Z,10.90
2024-02-14T08:41:16.409Z,10.90
2024-02-14T08:43:47.126Z,10.90
2024-02-14T08:46:14.934Z,11.00
2024-02-14T08:48:48.813Z,11.00
2024-02-14T08:51:17.424Z,11.10
2024-02-14T08:53:45.868Z,11.20
2024-02-14T08:56:13.405Z,11.40
2024-02-14T08:58:40.442Z,11.60
2024-02-14T09:01:14.145Z,11.60
2024-02-14T09:03:49.914Z,11.60
2024-02-14T09:06:22.229Z,11.60
2024-02-14T09:08:49.984Z,11.60
2024-02-14T09:11:16.990Z,11.50
2024-02-14T09:13:44.048Z,11.60
2024-02-14T09:16:12.597Z,11.60
2024-02-14T09:18:40.016Z,11.60
2024-02-14T09:21:07.695Z,11.70
2024-02-14T09:23:35.432Z,11.70
2024-02-14T09:26:03.248Z,11.70
2024-02-14T09:28:30.458Z,11.70
2024-02-14T09:30:57.382Z,11.80
2024-02-14T09:33:24.465Z,11.80
2024-02-14T09:35:53.865Z,11.90
2024-02-14T09:38:21.259Z,11.90
2024-02-14T09:40:48.629Z,12.00
2024-02-14T09:43:37.706Z,11.90
2024-02-14T09:46:04.671Z,12.00
2024-02-14T09:48:32.027Z,12.00
2024-02-14T09:50:59.878Z,12.10
2024-02-14T09:53:29.856Z,12.20
2024-02-14T09:55:57.597Z,12.20
2024-02-14T09:58:25.954Z,12.20
2024-02-14T10:00:52.881Z,12.20
2024-02-14T10:03:20.050Z,12.30
2024-02-14T10:05:46.933Z,12.30
2024-02-14T10:08:13.958Z,12.30
2024-02-14T10:10:40.785Z,12.40
2024-02-14T10:13:08.576Z,12.30
2024-02-14T10:15:35.698Z,12.40
2024-02-14T10:18:04.857Z,12.30
2024-02-14T10:20:35.250Z,12.40
2024-02-14T10:23:05.868Z,12.40
2024-02-14T10:25:35.525Z,12.40
2024-02-14T10:28:12.499Z,12.40
2024-02-14T10:30:39.609Z,12.50
2024-02-14T10:33:17.110Z,12.50
2024-02-14T10:35:53.707Z,12.50
2024-02-14T10:38:23.622Z,12.60
2024-02-14T10:40:52.152Z,12.60
2024-02-14T10:43:19.169Z,12.60
2024-02-14T10:45:46.882Z,12.70
2024-02-14T10:48:14.385Z,12.70
2024-02-14T10:50:43.097Z,12.70
2024-02-14T10:53:17.058Z,12.70
2024-02-14T10:55:49.253Z,12.80
2024-02-14T10:58:17.951Z,12.80
2024-02-14T11:00:46.549Z,12.80
2024-02-14T11:03:16.562Z,12.90
2024-02-14T11:05:48.119Z,12.90
2024-02-14T11:08:16.609Z,12.90
2024-02-14T11:10:43.823Z,12.90
2024-02-14T11:13:16.924Z,12.90
2024-02-14T11:15:46.979Z,12.80
2024-02-14T11:18:13.964Z,12.80
2024-02-14T11:20:42.123Z,12.80
2024-02-14T11:23:12.730Z,12.70
2024-02-14T11:25:39.884Z,12.80
2024-02-14T11:28:17.710Z,12.80
2024-02-14T11:30:45.741Z,12.80
2024-02-14T11:33:25.407Z,12.80
2024-02-14T11:35:54.654Z,12.80
2024-02-14T11:38:23.115Z,12.90
2024-02-14T11:40:51.221Z,12.80
2024-02-14T11:43:21.274Z,12.80
2024-02-14T11:45:51.031Z,12.90
2024-02-14T11:48:18.925Z,12.90
2024-02-14T11:50:46.930Z,12.80
2024-02-14T11:53:18.102Z,12.90
2024-02-14T11:55:44.940Z,12.90
2024-02-14T11:58:13.922Z,12.90
2024-02-14T12:00:48.295Z,13.00
2024-02-14T12:03:20.577Z,13.00
2024-02-14T12:05:49.487Z,13.10
2024-02-14T12:08:16.826Z,13.10
2024-02-14T12:10:44.714Z,13.10
2024-02-14T12:13:16.930Z,13.10
2024-02-14T12:15:50.104Z,13.00
2024-02-14T12:18:19.809Z,13.00
2024-02-14T12:20:48.175Z,13.00
2024-02-14T12:23:19.191Z,13.00
2024-02-14T12:25:51.028Z,13.00
2024-02-14T12:28:19.060Z,13.00
2024-02-14T12:30:53.283Z,13.10
2024-02-14T12:33:20.330Z,13.10
2024-02-14T12:35:49.075Z,13.20
2024-02-14T12:38:17.950Z,13.10
2024-02-14T12:40:47.843Z,13.10
2024-02-14T12:43:17.181Z,13.20
2024-02-14T12:45:45.282Z,13.10
2024-02-14T12:48:15.119Z,13.10
2024-02-14T12:50:49.010Z,13.10
2024-02-14T12:53:15.876Z,13.10
2024-02-14T12:55:43.126Z,13.10
2024-02-14T12:58:11.026Z,13.10
2024-02-14T13:00:39.457Z,13.10
2024-02-14T13:03:06.681Z,13.00
2024-02-14T13:05:33.777Z,13.10
2024-02-14T13:08:01.872Z,13.00
2024-02-14T13:10:28.777Z,13.00
2024-02-14T13:12:57.509Z,13.00
2024-02-14T13:15:25.597Z,13.00
2024-02-14T13:17:52.613Z,12.90
2024-02-14T13:20:19.797Z,13.00
2024-02-14T13:22:47.690Z,12.90
2024-02-14T13:25:16.935Z,12.90
2024-02-14T13:27:46.071Z,12.90
2024-02-14T13:30:13.358Z,12.90
2024-02-14T13:32:40.970Z,12.90
2024-02-14T13:35:08.257Z,12.90
2024-02-14T13:37:35.727Z,12.90
2024-02-14T13:40:05.501Z,13.00
2024-02-14T13:42:32.396Z,12.90
2024-02-14T13:44:59.352Z,13.00
2024-02-14T13:47:26.467Z,13.00
2024-02-14T13:49:53.453Z,13.10
2024-02-14T13:52:21.717Z,13.20
2024-02-14T13:54:48.738Z,13.20
2024-02-14T13:57:16.545Z,13.30
2024-02-14T13:59:44.402Z,13.30
2024-02-14T14:02:11.327Z,13.30
2024-02-14T14:04:39.055Z,13.30
2024-02-14T14:07:06.643Z,13.40
2024-02-14T14:09:34.223Z,13.40
2024-02-14T14:12:01.316Z,13.40
2024-02-14T14:14:28.448Z,13.30
2024-02-14T14:16:55.610Z,13.30
2024-02-14T14:19:22.592Z,13.30
2024-02-14T14:21:49.653Z,13.30
2024-02-14T14:24:17.270Z,13.20
2024-02-14T14:26:44.320Z,13.20
2024-02-14T14:29:11.969Z,13.10
2024-02-14T14:31:38.867Z,13.10
2024-02-14T14:34:06.091Z,13.10
2024-02-14T14:36:33.136Z,13.10
2024-02-14T14:39:00.030Z,13.00
2024-02-14T14:41:26.931Z,13.10
2024-02-14T14:43:53.774Z,13.00
2024-02-14T14:46:21.423Z,13.10
2024-02-14T14:48:49.259Z,13.10
2024-02-14T14:51:16.355Z,13.10
2024-02-14T14:53:43.450Z,13.10
2024-02-14T14:56:11.242Z,13.10
2024-02-14T14:58:38.139Z,13.10
2024-02-14T15:01:06.086Z,13.10
2024-02-14T15:03:33.882Z,13.10
2024-02-14T15:06:01.088Z,13.20
2024-02-14T15:08:29.421Z,13.20
2024-02-14T15:10:57.275Z,13.20
2024-02-14T15:13:27.018Z,13.30
2024-02-14T15:15:54.531Z,13.30
2024-02-14T15:18:21.868Z,13.30
2024-02-14T15:20:48.985Z,13.40
2024-02-14T15:23:15.933Z,13.40
2024-02-14T15:25:42.790Z,13.40
2024-02-14T15:28:15.541Z,13.50
2024-02-14T15:31:00.980Z,13.50
2024-02-14T15:33:32.009Z,13.50
2024-02-14T15:36:01.254Z,13.50
2024-02-14T15:38:30.565Z,13.50
2024-02-14T15:41:02.945Z,13.40
2024-02-14T15:43:30.189Z,13.40
2024-02-14T15:45:58.708Z,13.50
2024-02-14T15:48:28.050Z,13.50
2024-02-14T15:50:55.212Z,13.50
2024-02-14T15:53:22.364Z,13.50
2024-02-14T15:55:49.217Z,13.50
2024-02-14T15:58:16.561Z,13.50
2024-02-14T16:00:43.643Z,13.50
2024-02-14T16:03:13.425Z,13.50
2024-02-14T16:05:40.612Z,13.40
2024-02-14T16:08:09.092Z,13.50
2024-02-14T16:10:35.895Z,13.50
2024-02-14T16:13:02.751Z,13.40
2024-02-14T16:15:30.256Z,13.40
2024-02-14T16:17:57.378Z,13.30
2024-02-14T16:20:24.342Z,13.30
2024-02-14T16:22:51.546Z,13.30
2024-02-14T16:25:18.609Z,13.30
2024-02-14T16:27:47.695Z,13.30
2024-02-14T16:30:17.688Z,13.20
2024-02-14T16:32:45.534Z,13.30
2024-02-14T16:35:12.959Z,13.20
2024-02-14T16:37:40.044Z,13.20
2024-02-14T16:40:08.879Z,13.20
2024-02-14T16:42:35.910Z,13.20
2024-02-14T16:45:05.494Z,13.20
2024-02-14T16:47:32.632Z,13.10
2024-02-14T16:49:59.746Z,13.10
2024-02-14T16:52:26.798Z,13.10
2024-02-14T16:54:53.684Z,13.20
2024-02-14T16:57:21.170Z,13.20
2024-02-14T16:59:48.382Z,13.10
2024-02-14T17:02:15.948Z,13.10
2024-02-14T17:04:43.451Z,13.10
2024-02-14T17:07:16.173Z,13.10
2024-02-14T17:09:46.513Z,13.00
2024-02-14T17:12:13.581Z,13.10
2024-02-14T17:14:42.619Z,13.10
2024-02-14T17:17:11.185Z,13.10
2024-02-14T17:19:38.741Z,13.00
2024-02-14T17:22:20.672Z,13.00
2024-02-14T17:24:56.827Z,13.00
2024-02-14T17:27:24.203Z,13.10
2024-02-14T17:29:51.207Z,13.10
2024-02-14T17:32:28.306Z,13.10
2024-02-14T17:35:02.850Z,13.00
2024-02-14T17:37:29.766Z,13.00
2024-02-14T17:39:57.394Z,13.00
2024-02-14T17:42:24.318Z,13.00
2024-02-14T17:44:51.392Z,13.10
2024-02-14T17:47:18.976Z,13.00
2024-02-14T17:49:47.665Z,12.90
2024-02-14T17:52:20.610Z,12.90
2024-02-14T17:54:48.640Z,12.90
2024-02-14T17:57:17.734Z,13.00
2024-02-14T17:59:45.998Z,12.90
2024-02-14T18:02:13.097Z,12.90
2024-02-14T18:04:40.120Z,12.90
2024-02-14T18:07:07.263Z,12.90
2024-02-14T18:09:34.215Z,12.90
2024-02-14T18:12:01.229Z,12.90
2024-02-14T18:14:29.237Z,12.90
2024-02-14T18:16:56.185Z,13.00
2024-02-14T18:19:23.139Z,13.00
2024-02-14T18:21:50.150Z,12.90
2024-02-14T18:24:17.402Z,12.90
2024-02-14T18:26:44.318Z,12.90
2024-02-14T18:29:15.296Z,12.90
2024-02-14T18:31:42.712Z,12.90
2024-02-14T18:34:09.845Z,12.90
2024-02-14T18:36:36.769Z,12.90
2024-02-14T18:39:04.030Z,12.80
2024-02-14T18:41:31.182Z,12.90
2024-02-14T18:44:01.431Z,12.90
2024-02-14T18:46:28.450Z,12.90
2024-02-14T18:48:55.593Z,12.90
2024-02-14T18:51:22.745Z,13.00
2024-02-14T18:53:52.109Z,13.00
2024-02-14T18:56:21.826Z,13.00
2024-02-14T18:58:48.749Z,13.10
2024-02-14T19:01:28.943Z,13.10
2024-02-14T19:03:56.418Z,13.10
2024-02-14T19:06:24.390Z,13.10
2024-02-14T19:08:52.682Z,13.10
2024-02-14T19:11:20.526Z,13.10
2024-02-14T19:13:47.525Z,13.10
2024-02-14T19:16:24.153Z,13.20
2024-02-14T19:18:56.020Z,13.20
2024-02-14T19:21:23.505Z,13.30
2024-02-14T19:23:50.745Z,13.30
2024-02-14T19:26:17.861Z,13.30
2024-02-14T19:28:45.062Z,13.30
2024-02-14T19:31:12.028Z,13.30
2024-02-14T19:33:39.391Z,13.20
2024-02-14T19:36:09.094Z,13.40
2024-02-14T19:38:37.308Z,13.30
2024-02-14T19:41:04.315Z,13.30
2024-02-14T19:43:38.801Z,13.30
2024-02-14T19:46:07.273Z,13.30
2024-02-14T19:48:36.406Z,13.20
2024-02-14T19:51:04.583Z,13.20
2024-02-14T19:53:32.366Z,13.20
2024-02-14T19:56:02.424Z,13.20
2024-02-14T19:58:29.512Z,13.20
2024-02-14T20:00:56.494Z,13.30
2024-02-14T20:03:23.512Z,13.30
2024-02-14T20:05:50.582Z,13.30
2024-02-14T20:08:19.460Z,13.30
2024-02-14T20:10:47.011Z,13.30
2024-02-14T20:13:14.476Z,13.30
2024-02-14T20:15:41.699Z,13.30
2024-02-14T20:18:09.262Z,13.40
2024-02-14T20:20:37.545Z,13.40
2024-02-14T20:23:04.866Z,13.40
2024-02-14T20:25:31.834Z,13.40
2024-02-14T20:27:58.685Z,13.40
2024-02-14T20:30:29.676Z,13.30
2024-02-14T20:32:58.435Z,13.30
2024-02-14T20:35:25.488Z,13.30
2024-02-14T20:37:52.660Z,13.30
2024-02-14T20:40:19.604Z,13.30
2024-02-14T20:42:46.455Z,13.20
2024-02-14T20:45:14.363Z,13.20
2024-02-14T20:47:42.526Z,13.20
2024-02-14T20:50:10.666Z,13.20
2024-02-14T20:52:38.665Z,13.10
2024-02-14T20:55:06.142Z,13.10
2024-02-14T20:57:34.033Z,13.10
2024-02-14T21:00:01.030Z,13.20
2024-02-14T21:02:28.767Z,13.20
2024-02-14T21:04:55.916Z,13.30
2024-02-14T21:07:22.895Z,13.30
2024-02-14T21:09:49.744Z,13.30
2024-02-14T21:12:19.060Z,13.30
2024-02-14T21:14:45.967Z,13.20
2024-02-14T21:17:13.136Z,13.20
2024-02-14T21:19:40.320Z,13.20
2024-02-14T21:22:07.323Z,13.20
2024-02-14T21:24:34.180Z,13.20
2024-02-14T21:27:01.089Z,13.10
2024-02-14T21:29:28.038Z,13.10
2024-02-14T21:31:54.987Z,13.10
2024-02-14T21:34:22.037Z,13.10
2024-02-14T21:36:49.129Z,13.10
2024-02-14T21:39:18.748Z,13.10
2024-02-14T21:41:47.451Z,13.10
2024-02-14T21:44:14.482Z,13.10
2024-02-14T21:46:41.527Z,13.20
2024-02-14T21:49:08.732Z,13.20
2024-02-14T21:51:39.089Z,13.20
2024-02-14T21:54:06.068Z,13.20
2024-02-14T21:56:33.349Z,13.20
2024-02-14T21:59:00.332Z,13.30
2024-02-14T22:01:27.445Z,13.30
2024-02-14T22:03:54.411Z,13.30
2024-02-14T22:06:21.679Z,13.30
2024-02-14T22:08:49.817Z,13.50
2024-02-14T22:11:16.948Z,13.40
2024-02-14T22:13:44.022Z,13.40
2024-02-14T22:16:12.106Z,13.40
2024-02-14T22:18:39.787Z,13.40
2024-02-14T22:21:07.318Z,13.40
2024-02-14T22:23:34.814Z,13.30
2024-02-14T22:26:02.346Z,13.30
2024-02-14T22:28:35.957Z,13.30
2024-02-14T22:31:06.945Z,13.30
2024-02-14T22:33:34.455Z,13.30
2024-02-14T22:36:01.978Z,13.30
2024-02-14T22:38:29.273Z,13.30
2024-02-14T22:40:56.691Z,13.20
2024-02-14T22:43:23.796Z,13.30
2024-02-14T22:45:51.098Z,13.20
2024-02-14T22:48:51.570Z,13.20
2024-02-14T22:51:18.572Z,13.20
2024-02-14T22:53:45.435Z,13.20
2024-02-14T22:56:12.463Z,13.20
2024-02-14T22:58:39.406Z,13.20
2024-02-14T23:01:06.934Z,13.30
2024-02-14T23:03:34.518Z,13.30
2024-02-14T23:06:05.064Z,13.30
2024-02-14T23:08:32.149Z,13.40
2024-02-14T23:10:59.109Z,13.40
2024-02-14T23:13:26.627Z,13.40
2024-02-14T23:15:53.526Z,13.40
2024-02-14T23:18:22.013Z,13.40
2024-02-14T23:20:49.267Z,13.40
2024-02-14T23:23:16.252Z,13.40
2024-02-14T23:25:43.234Z,13.40
2024-02-14T23:28:11.457Z,13.40
2024-02-14T23:30:42.305Z,13.40
2024-02-14T23:33:13.543Z,13.40
2024-02-14T23:35:41.144Z,13.50
2024-02-14T23:38:10.248Z,13.50
2024-02-14T23:40:37.185Z,13.60
2024-02-14T23:43:05.063Z,13.60
2024-02-14T23:45:32.636Z,13.70
2024-02-14T23:48:00.127Z,13.70
2024-02-14T23:50:31.757Z,13.70
2024-02-14T23:52:58.946Z,13.80
2024-02-14T23:55:26.872Z,13.80
2024-02-14T23:57:55.674Z,13.80
